Aérodrome :
LOGIN :

S'inscrire | Disclaimer

   EN    FR    IT 

 










Légende :    VFR   VFR Marginal   IFR   IFR Intensif   IFR Très Intensif
Visi : 
Plafond : 
>= 8 km
>= 3000ft
5 à 8 km
1000 à 3000 ft
1500m à 5 km
500 à 1000 ft
800 à 1500m
200 à 500 ft
< 800m
< 200 ft
Symboles :   Orages  Brouillard  Fortes neiges  Fortes précipitations  Vent > 20 kt
SIGMETs :   Divers  Orages  Givrage  Turbulence  Onde Orograph.  Cendres Volcan.






- Altitude de l'aérodrome : 17 ft
- Code IATA : CPH


EKCH - København - Kastrup (Copenhagen)

DERNIER METAR :
  • 061820Z 22015KT 9999 -DZRA SCT006 BKN009 07/06 Q0997 TEMPO 4000

METARs EXPIRÉS :
  • 061750Z 21015KT 9999 -DZRA SCT006 BKN009 07/06 Q0997 TEMPO 4000
  • 061720Z 22015KT 9999 -DZRA SCT006 BKN009 07/06 Q0998 TEMPO 4000
  • 061650Z 22017KT 9999 SCT006 BKN009 07/06 Q0998 TEMPO 4000
  • 061620Z 22016KT 6000 -DZRA OVC006 07/06 Q0998 TEMPO 4000
  • 061550Z 22016KT 6000 OVC006 07/06 Q0998 TEMPO 23022G32KT

TAF TAF EKCH
Valide du 06 à 18h jusqu'au 07 à 18h UTC


061703Z 0618/0718 23018KT 4000 -RADZ BR BKN005
TEMPO 0618/0702 7000 NSW BKN010
BECMG 0702/0704 9999 NSW BKN020
TEMPO 0704/0707 SHRA BKN012 SCT015CB
BECMG 0705/0707 28015KT
TEMPO 0707/0715 29018G28KT -SHRA SCT015TCU



MET'MAP, la Météo Aéronautique d'un coup d'oeil ! - Copyright ORBIFLY Décembre 2007 - Disclaimer

ORBIFLY MET'MAP TEAM :

Programmation & Développement : Alexandra Zaïnal
Sur une idée originale de : Baudouin d'Aumeries
Assistance à la programmation : Marc-Olivier Méhu
Soutien technique & logistique : Manuel Goepfert

Contact : metmap@orbifly.com




SOURCES & CREDITS :

   NOAA